Time;durP1;ratioP1;P1;durP2;ratioP2;P2;SDS_P1;SDS_P2;PMS_P1;PMS_P2;Temp;Humidity;BMP_temperature;BMP_pressure;BME280_temperature;BME280_humidity;BME280_pressure;Samples;Min_cycle;Max_cycle;Signal;HPM_P1;HPM_P2
2022/03/03 00:00:32;;;;;;;102.45;48.78;;;2.40;67.00;;;;;;4989838;28;21011;-79
2022/03/03 00:03:01;;;;;;;71.85;36.08;;;2.40;67.00;;;;;;5000775;28;20218;-79
2022/03/03 00:05:29;;;;;;;81.78;36.88;;;2.40;67.00;;;;;;4984003;28;20680;-79
2022/03/03 00:07:57;;;;;;;55.53;30.67;;;2.40;67.00;;;;;;4986079;28;20238;-79
2022/03/03 00:10:25;;;;;;;45.05;27.65;;;2.40;67.10;;;;;;4984864;28;20198;-80
2022/03/03 00:12:53;;;;;;;44.55;27.73;;;2.40;67.00;;;;;;4985852;28;20206;-79
2022/03/03 00:15:23;;;;;;;54.83;29.80;;;2.30;66.90;;;;;;4986569;28;20277;-80
2022/03/03 00:17:51;;;;;;;170.32;62.50;;;2.30;66.90;;;;;;4985072;28;20215;-79
2022/03/03 00:20:19;;;;;;;158.65;56.47;;;2.30;67.00;;;;;;4985980;28;20233;-79
2022/03/03 00:22:47;;;;;;;62.90;34.65;;;2.30;67.00;;;;;;4984640;28;20549;-80
2022/03/03 00:25:17;;;;;;;78.22;37.70;;;2.30;67.10;;;;;;4984534;28;20222;-78
2022/03/03 00:27:45;;;;;;;52.42;28.90;;;2.30;67.00;;;;;;4985607;28;20230;-79
2022/03/03 00:30:13;;;;;;;46.00;27.42;;;2.20;67.00;;;;;;4985845;28;20262;-79
2022/03/03 00:32:43;;;;;;;44.97;26.83;;;2.20;67.00;;;;;;4986632;28;20919;-79
2022/03/03 00:35:12;;;;;;;41.30;25.90;;;2.10;67.00;;;;;;4986444;28;20230;-79
2022/03/03 00:37:41;;;;;;;64.78;35.05;;;2.10;67.20;;;;;;4984454;28;20226;-79
2022/03/03 00:40:10;;;;;;;46.60;27.88;;;2.10;67.20;;;;;;4985837;28;20722;-80
2022/03/03 00:42:38;;;;;;;42.92;27.48;;;2.10;67.00;;;;;;4984540;28;20199;-80
2022/03/03 00:45:07;;;;;;;61.58;34.40;;;2.00;66.90;;;;;;4984907;28;20292;-79
2022/03/03 00:47:35;;;;;;;64.03;34.78;;;1.90;67.00;;;;;;4983556;28;20253;-80
2022/03/03 00:50:06;;;;;;;62.03;35.17;;;1.90;67.10;;;;;;4984702;28;20191;-80
2022/03/03 00:52:34;;;;;;;64.15;33.88;;;1.90;67.30;;;;;;4984452;28;20202;-79
2022/03/03 00:55:03;;;;;;;46.17;27.40;;;1.90;67.40;;;;;;4999828;28;20265;-78
2022/03/03 00:57:32;;;;;;;36.40;22.52;;;1.90;67.30;;;;;;4984497;28;20254;-78
2022/03/03 01:00:00;;;;;;;41.70;22.23;;;1.90;67.20;;;;;;4982092;28;20223;-79
2022/03/03 01:02:28;;;;;;;41.55;24.65;;;1.90;67.30;;;;;;4984359;28;20246;-80
2022/03/03 01:04:56;;;;;;;44.90;24.30;;;1.90;67.30;;;;;;4984821;28;20294;-79
2022/03/03 01:07:26;;;;;;;42.47;24.40;;;1.90;67.40;;;;;;4982330;28;20293;-79
2022/03/03 01:09:54;;;;;;;43.05;24.70;;;1.90;67.40;;;;;;4983518;28;20669;-79
2022/03/03 01:12:22;;;;;;;41.45;23.92;;;1.90;67.40;;;;;;4983132;28;20773;-81
2022/03/03 01:14:51;;;;;;;47.05;24.38;;;1.90;67.40;;;;;;4984004;28;20203;-80
2022/03/03 01:17:19;;;;;;;49.55;27.27;;;1.90;67.40;;;;;;4984221;28;20269;-80
2022/03/03 01:19:47;;;;;;;46.50;25.58;;;1.90;67.30;;;;;;4985028;28;20219;-80
2022/03/03 01:22:16;;;;;;;55.88;29.35;;;1.90;67.30;;;;;;4984241;28;20672;-80
2022/03/03 01:24:46;;;;;;;51.85;29.33;;;1.90;67.30;;;;;;4983000;28;20210;-80
2022/03/03 01:27:14;;;;;;;46.22;26.85;;;1.90;67.30;;;;;;4979398;28;20235;-79
2022/03/03 01:29:42;;;;;;;45.83;23.63;;;1.80;67.30;;;;;;4984483;28;20306;-79
2022/03/03 01:32:10;;;;;;;36.30;20.80;;;1.80;67.30;;;;;;4984991;28;20238;-79
2022/03/03 01:34:38;;;;;;;35.95;22.98;;;1.80;67.30;;;;;;4983683;28;20887;-81
2022/03/03 01:37:06;;;;;;;32.45;21.75;;;1.80;67.40;;;;;;4984817;28;20242;-79
2022/03/03 01:39:34;;;;;;;37.22;21.20;;;1.80;67.40;;;;;;4984491;28;20210;-80
2022/03/03 01:42:04;;;;;;;37.47;23.35;;;1.80;67.30;;;;;;4985736;28;20214;-82
2022/03/03 01:44:32;;;;;;;33.20;22.67;;;1.80;67.30;;;;;;4999175;28;20214;-81
2022/03/03 01:47:01;;;;;;;43.25;25.05;;;1.70;67.30;;;;;;4983066;28;20249;-80
2022/03/03 01:49:29;;;;;;;36.38;22.23;;;1.70;67.30;;;;;;4985097;28;20300;-81
2022/03/03 01:51:57;;;;;;;40.40;23.10;;;1.70;67.30;;;;;;4999370;28;20238;-80
2022/03/03 01:54:25;;;;;;;41.63;22.65;;;1.70;67.40;;;;;;4984050;28;20239;-80
2022/03/03 01:56:53;;;;;;;35.75;20.40;;;1.70;67.40;;;;;;4984668;28;20230;-82
2022/03/03 01:59:22;;;;;;;31.90;19.98;;;1.70;67.40;;;;;;5000117;28;20206;-79
2022/03/03 02:01:51;;;;;;;41.35;22.48;;;1.60;67.40;;;;;;4981877;28;20231;-81
2022/03/03 02:04:19;;;;;;;31.85;20.60;;;1.60;67.40;;;;;;4981138;28;20214;-81
2022/03/03 02:06:47;;;;;;;31.20;20.83;;;1.60;67.40;;;;;;4984299;28;20265;-81
2022/03/03 02:09:15;;;;;;;32.75;19.83;;;1.60;67.40;;;;;;4980042;28;20727;-81
2022/03/03 02:11:46;;;;;;;29.13;19.35;;;1.60;67.30;;;;;;4984153;28;20337;-80
2022/03/03 02:14:14;;;;;;;31.65;20.13;;;1.60;67.40;;;;;;4988206;28;20203;-80
2022/03/03 02:16:43;;;;;;;32.83;20.65;;;1.50;67.30;;;;;;4984190;28;20241;-80
2022/03/03 02:19:17;;;;;;;42.65;25.92;;;1.50;67.30;;;;;;4991369;28;20209;-80
2022/03/03 02:21:49;;;;;;;30.65;20.75;;;1.50;67.40;;;;;;4984509;28;20757;-80
2022/03/03 02:24:19;;;;;;;34.35;21.08;;;1.40;67.50;;;;;;4983382;28;20221;-80
2022/03/03 02:26:48;;;;;;;33.13;19.73;;;1.50;67.50;;;;;;4991886;28;20270;-80
2022/03/03 02:29:16;;;;;;;31.30;20.35;;;1.50;67.50;;;;;;4986765;28;20210;-80
2022/03/03 02:31:45;;;;;;;34.45;21.52;;;1.40;67.50;;;;;;4988856;28;20226;-80
2022/03/03 02:34:13;;;;;;;33.72;22.48;;;1.40;67.60;;;;;;4988857;28;20206;-80
2022/03/03 02:36:41;;;;;;;65.28;33.22;;;1.50;67.60;;;;;;4989432;28;20222;-82
2022/03/03 02:39:11;;;;;;;76.85;36.00;;;1.40;67.50;;;;;;5002973;28;20203;-81
2022/03/03 02:41:39;;;;;;;69.28;33.45;;;1.40;67.50;;;;;;5003010;28;20612;-81
2022/03/03 02:44:07;;;;;;;61.10;32.92;;;1.40;67.40;;;;;;4987711;28;20221;-80
2022/03/03 02:46:35;;;;;;;43.20;22.70;;;1.30;67.40;;;;;;4987214;28;20222;-80
2022/03/03 02:49:04;;;;;;;30.38;20.08;;;1.20;67.30;;;;;;4986861;28;20217;-80
2022/03/03 02:51:33;;;;;;;32.08;20.85;;;1.20;67.30;;;;;;4989572;28;20198;-80
2022/03/03 02:54:01;;;;;;;33.35;19.80;;;1.10;67.50;;;;;;4986760;28;20206;-79
2022/03/03 02:56:30;;;;;;;38.38;21.15;;;1.10;67.50;;;;;;4988244;28;20879;-80
2022/03/03 02:58:57;;;;;;;32.90;18.90;;;1.10;67.70;;;;;;4986380;28;20211;-80
2022/03/03 03:01:25;;;;;;;34.25;19.80;;;1.10;67.80;;;;;;4986887;28;20222;-80
2022/03/03 03:03:54;;;;;;;35.90;20.77;;;1.20;67.80;;;;;;4987040;28;20206;-80
2022/03/03 03:06:22;;;;;;;60.17;29.73;;;1.20;67.80;;;;;;4987422;28;20237;-80
2022/03/03 03:08:50;;;;;;;51.00;27.77;;;1.10;67.70;;;;;;4985787;28;20760;-79
2022/03/03 03:11:18;;;;;;;50.10;26.45;;;1.10;67.80;;;;;;4987499;28;20578;-80
2022/03/03 03:13:47;;;;;;;56.13;27.13;;;1.10;67.80;;;;;;4986955;28;20223;-80
2022/03/03 03:16:15;;;;;;;37.08;20.30;;;1.10;67.70;;;;;;4984800;28;20241;-80
2022/03/03 03:18:43;;;;;;;28.92;17.63;;;1.10;67.70;;;;;;4986159;28;20301;-80
2022/03/03 03:21:11;;;;;;;34.03;19.90;;;1.10;67.70;;;;;;4986615;28;20226;-80
2022/03/03 03:23:39;;;;;;;36.80;19.65;;;1.00;67.70;;;;;;4986011;28;20211;-83
2022/03/03 03:26:07;;;;;;;28.50;19.40;;;1.00;67.70;;;;;;4985740;28;20219;-81
2022/03/03 03:28:35;;;;;;;31.70;20.55;;;1.00;67.60;;;;;;5001397;28;20262;-80
2022/03/03 03:31:05;;;;;;;33.72;20.40;;;0.90;67.70;;;;;;4985866;28;20233;-80
2022/03/03 03:33:33;;;;;;;37.13;20.17;;;0.90;67.90;;;;;;4984262;28;20207;-80
2022/03/03 03:36:01;;;;;;;31.80;19.60;;;0.90;68.10;;;;;;4987286;28;20237;-81
2022/03/03 03:38:29;;;;;;;30.90;19.27;;;0.90;68.00;;;;;;4996505;28;20226;-80
2022/03/03 03:40:57;;;;;;;41.35;22.35;;;1.00;68.10;;;;;;4985144;28;20731;-81
2022/03/03 03:43:25;;;;;;;42.50;22.27;;;1.00;67.90;;;;;;4985211;28;20202;-81
2022/03/03 03:45:53;;;;;;;35.13;19.80;;;1.00;67.90;;;;;;5000152;28;20235;-80
2022/03/03 03:48:23;;;;;;;39.97;21.20;;;1.00;68.00;;;;;;4986144;28;20234;-80
2022/03/03 03:50:51;;;;;;;39.15;25.77;;;1.00;68.10;;;;;;4997752;28;20287;-80
2022/03/03 03:53:20;;;;;;;41.28;24.20;;;1.00;68.00;;;;;;4985149;28;20946;-80
2022/03/03 03:55:48;;;;;;;35.72;21.38;;;1.00;68.00;;;;;;4987802;28;20203;-81
2022/03/03 03:58:16;;;;;;;28.20;19.13;;;1.00;68.00;;;;;;4985968;28;20986;-79
2022/03/03 04:00:45;;;;;;;30.88;19.58;;;1.00;68.00;;;;;;4983221;28;20710;-80
2022/03/03 04:03:13;;;;;;;31.88;19.92;;;1.00;68.00;;;;;;4984007;28;20722;-80
2022/03/03 04:05:42;;;;;;;32.33;19.75;;;1.00;68.00;;;;;;4986040;28;20238;-80
2022/03/03 04:08:11;;;;;;;33.10;20.15;;;1.00;68.00;;;;;;4986502;28;20215;-81
2022/03/03 04:10:39;;;;;;;34.08;21.40;;;1.00;68.00;;;;;;4983866;28;20222;-81
2022/03/03 04:13:07;;;;;;;34.75;19.70;;;1.00;67.90;;;;;;4985265;28;20325;-80
2022/03/03 04:15:34;;;;;;;35.50;19.65;;;1.00;67.90;;;;;;4985313;28;20769;-80
2022/03/03 04:18:03;;;;;;;37.15;19.63;;;0.90;67.90;;;;;;5001025;28;20234;-81
2022/03/03 04:20:31;;;;;;;33.92;21.52;;;0.90;68.00;;;;;;4984849;28;20214;-81
2022/03/03 04:23:00;;;;;;;40.15;19.90;;;0.90;68.00;;;;;;4984745;28;20309;-80
2022/03/03 04:25:28;;;;;;;29.17;19.27;;;0.90;68.00;;;;;;4986424;28;20199;-79
2022/03/03 04:27:56;;;;;;;37.38;21.35;;;0.90;68.00;;;;;;4984961;28;20277;-81
2022/03/03 04:30:27;;;;;;;34.20;21.02;;;0.90;68.00;;;;;;4984139;28;20242;-81
2022/03/03 04:32:55;;;;;;;33.25;20.60;;;0.90;68.00;;;;;;4983263;28;20211;-81
2022/03/03 04:35:23;;;;;;;42.63;22.40;;;0.90;68.00;;;;;;4985049;28;20203;-81
2022/03/03 04:37:51;;;;;;;43.88;21.55;;;0.90;68.00;;;;;;4985223;28;20214;-81
2022/03/03 04:40:21;;;;;;;34.42;21.70;;;0.90;68.00;;;;;;4985214;28;20211;-79
2022/03/03 04:42:50;;;;;;;33.50;20.70;;;0.90;68.00;;;;;;4997400;28;20223;-80
2022/03/03 04:45:17;;;;;;;34.47;20.02;;;0.90;68.00;;;;;;4985036;28;20198;-79
2022/03/03 04:47:46;;;;;;;40.20;22.50;;;0.80;68.00;;;;;;4984586;28;20234;-80
2022/03/03 04:50:14;;;;;;;34.53;21.33;;;0.80;68.00;;;;;;4984962;28;20207;-82
2022/03/03 04:52:42;;;;;;;38.33;20.25;;;0.80;68.00;;;;;;4982147;28;20226;-81
2022/03/03 04:55:10;;;;;;;34.17;20.27;;;0.80;67.90;;;;;;4983831;28;20568;-82
2022/03/03 04:57:40;;;;;;;36.03;21.08;;;0.70;67.90;;;;;;4984259;28;20237;-80
2022/03/03 05:00:09;;;;;;;34.50;21.50;;;0.70;67.90;;;;;;4983699;28;20211;-80
2022/03/03 05:02:37;;;;;;;40.80;21.02;;;0.70;67.90;;;;;;4999642;28;20649;-81
2022/03/03 05:05:06;;;;;;;48.75;22.23;;;0.70;68.00;;;;;;4985474;28;20207;-80
2022/03/03 05:07:34;;;;;;;38.58;22.55;;;0.70;68.10;;;;;;4984207;28;20810;-80
2022/03/03 05:10:04;;;;;;;41.20;21.48;;;0.60;68.10;;;;;;5000221;28;20215;-78
2022/03/03 05:12:32;;;;;;;35.15;20.45;;;0.60;68.10;;;;;;4984675;28;20210;-79
2022/03/03 05:15:02;;;;;;;36.65;21.63;;;0.60;68.10;;;;;;4985843;28;20198;-81
2022/03/03 05:17:30;;;;;;;37.33;20.83;;;0.60;68.10;;;;;;4984843;28;20233;-80
2022/03/03 05:19:58;;;;;;;33.92;21.95;;;0.60;68.30;;;;;;4986610;28;20210;-80
2022/03/03 05:22:27;;;;;;;33.28;20.70;;;0.60;68.40;;;;;;4984508;28;20215;-80
2022/03/03 05:24:55;;;;;;;35.20;21.05;;;0.60;68.50;;;;;;4983380;28;20272;-81
2022/03/03 05:27:23;;;;;;;31.25;19.73;;;0.70;68.60;;;;;;4985586;28;20235;-81
2022/03/03 05:29:51;;;;;;;32.03;20.83;;;0.70;68.60;;;;;;4985312;28;20269;-80
2022/03/03 05:32:21;;;;;;;41.20;21.40;;;0.70;68.70;;;;;;4984131;28;20620;-80
2022/03/03 05:34:49;;;;;;;40.28;23.65;;;0.70;68.60;;;;;;4984598;28;20238;-80
2022/03/03 05:37:22;;;;;;;41.50;23.17;;;0.70;68.40;;;;;;4984209;28;20277;-81
2022/03/03 05:39:51;;;;;;;37.28;24.98;;;0.70;68.40;;;;;;4981610;28;20353;-81
2022/03/03 05:42:20;;;;;;;40.22;24.02;;;0.70;68.50;;;;;;4980821;28;20214;-81
2022/03/03 05:44:48;;;;;;;34.75;22.90;;;0.70;68.50;;;;;;4984064;28;20762;-82
2022/03/03 05:47:16;;;;;;;40.05;23.77;;;0.60;68.50;;;;;;4981600;28;20270;-84
2022/03/03 05:49:50;;;;;;;38.60;24.08;;;0.60;68.60;;;;;;5002071;28;20202;-83
2022/03/03 05:52:18;;;;;;;39.47;23.55;;;0.70;68.60;;;;;;4999950;28;20672;-84
2022/03/03 05:54:46;;;;;;;51.13;29.77;;;0.60;68.50;;;;;;4989957;28;20207;-84
2022/03/03 05:57:18;;;;;;;41.97;26.63;;;0.60;68.40;;;;;;4996237;28;20236;-84
2022/03/03 05:59:49;;;;;;;43.28;26.60;;;0.50;68.50;;;;;;5000659;28;20207;-84
2022/03/03 06:02:19;;;;;;;50.42;30.20;;;0.50;68.60;;;;;;4998721;28;20245;-84
2022/03/03 06:04:49;;;;;;;50.20;29.38;;;0.50;68.60;;;;;;4984220;28;20241;-83
2022/03/03 06:07:25;;;;;;;74.55;35.80;;;0.50;68.60;;;;;;5000195;28;20222;-84
2022/03/03 06:09:56;;;;;;;49.95;27.42;;;0.50;68.60;;;;;;4984626;28;20210;-83
2022/03/03 06:12:32;;;;;;;45.95;28.92;;;0.40;68.30;;;;;;4984564;28;20211;-85
2022/03/03 06:15:04;;;;;;;44.95;28.33;;;0.30;68.50;;;;;;5006562;28;20723;-83
2022/03/03 06:17:34;;;;;;;44.67;27.13;;;0.30;68.70;;;;;;4983866;28;20241;-84
2022/03/03 06:20:05;;;;;;;47.10;27.77;;;0.30;68.80;;;;;;4984155;28;20207;-83
2022/03/03 06:22:34;;;;;;;41.33;26.55;;;0.30;69.00;;;;;;5000226;28;20231;-83
2022/03/03 06:25:02;;;;;;;55.40;30.30;;;0.40;69.10;;;;;;4982455;28;20210;-82
2022/03/03 06:27:31;;;;;;;43.97;27.33;;;0.40;69.00;;;;;;4984118;28;20574;-83
2022/03/03 06:29:59;;;;;;;49.70;27.27;;;0.40;68.90;;;;;;5000309;28;20217;-83
2022/03/03 06:32:28;;;;;;;49.03;30.17;;;0.40;69.00;;;;;;4980976;28;20959;-83
2022/03/03 06:34:56;;;;;;;60.88;35.17;;;0.50;69.00;;;;;;4980768;28;20249;-83
2022/03/03 06:37:26;;;;;;;57.35;34.40;;;0.50;69.00;;;;;;4996467;28;20230;-82
2022/03/03 06:39:54;;;;;;;50.67;29.80;;;0.50;68.90;;;;;;4981699;28;20438;-82
2022/03/03 06:42:22;;;;;;;56.20;32.28;;;0.50;68.90;;;;;;4998055;28;20621;-82
2022/03/03 06:44:50;;;;;;;49.72;30.67;;;0.50;68.80;;;;;;4983320;28;20215;-84
2022/03/03 06:47:18;;;;;;;48.83;30.27;;;0.50;69.00;;;;;;4982832;28;20605;-84
2022/03/03 06:49:47;;;;;;;60.00;33.90;;;0.50;69.10;;;;;;4997677;28;20207;-84
2022/03/03 06:52:17;;;;;;;63.75;35.85;;;0.50;69.10;;;;;;4982441;28;20669;-83
2022/03/03 06:54:51;;;;;;;70.05;40.00;;;0.50;69.10;;;;;;4997581;28;20195;-83
2022/03/03 06:57:22;;;;;;;64.18;36.78;;;0.60;69.30;;;;;;4981422;28;20234;-82
2022/03/03 06:59:51;;;;;;;55.95;33.63;;;0.60;69.30;;;;;;4981502;28;20206;-83
2022/03/03 07:02:20;;;;;;;53.30;29.17;;;0.60;69.40;;;;;;4981052;28;20252;-83
2022/03/03 07:04:49;;;;;;;36.90;24.10;;;0.60;69.40;;;;;;4981013;28;20211;-82
2022/03/03 07:07:17;;;;;;;46.75;30.10;;;0.60;69.30;;;;;;4982538;28;20227;-83
2022/03/03 07:09:47;;;;;;;50.83;30.10;;;0.50;69.40;;;;;;4982704;28;20206;-82
2022/03/03 07:12:16;;;;;;;48.40;30.15;;;0.50;69.50;;;;;;4985678;28;20222;-83
2022/03/03 07:14:45;;;;;;;46.15;29.52;;;0.60;69.70;;;;;;4980574;28;20207;-82
2022/03/03 07:17:24;;;;;;;56.08;31.80;;;0.60;69.90;;;;;;4988343;28;20321;-82
2022/03/03 07:20:02;;;;;;;57.05;31.40;;;0.70;69.90;;;;;;4986274;28;20206;-83
2022/03/03 07:22:37;;;;;;;54.90;31.23;;;0.80;69.90;;;;;;4985230;28;20198;-83
2022/03/03 07:25:10;;;;;;;51.55;30.15;;;0.80;70.00;;;;;;4987485;28;20778;-82
2022/03/03 07:27:41;;;;;;;52.97;28.48;;;0.90;70.00;;;;;;5002708;28;20233;-83
2022/03/03 07:30:12;;;;;;;46.13;27.73;;;1.00;70.10;;;;;;4988732;28;20194;-83
2022/03/03 07:32:48;;;;;;;48.15;28.17;;;1.00;70.10;;;;;;4988135;28;20203;-82
2022/03/03 07:35:17;;;;;;;48.28;26.70;;;1.10;70.20;;;;;;4986077;28;20229;-83
2022/03/03 07:37:52;;;;;;;42.22;27.98;;;1.20;70.20;;;;;;4990406;28;20222;-81
2022/03/03 07:40:21;;;;;;;50.55;27.52;;;1.20;70.20;;;;;;4988279;28;20209;-82
2022/03/03 07:42:54;;;;;;;44.70;28.63;;;1.30;70.20;;;;;;5000349;28;20218;-84
2022/03/03 07:45:22;;;;;;;40.92;25.63;;;1.40;70.20;;;;;;5000251;28;20210;-83
2022/03/03 07:47:53;;;;;;;43.42;27.38;;;1.40;70.30;;;;;;4984987;28;20227;-81
2022/03/03 07:50:22;;;;;;;45.45;24.70;;;1.50;70.40;;;;;;4985671;28;20202;-83
2022/03/03 07:52:53;;;;;;;39.80;25.42;;;1.50;70.40;;;;;;4983936;28;20207;-81
2022/03/03 07:55:23;;;;;;;39.35;25.55;;;1.60;70.30;;;;;;4981456;28;20305;-81
2022/03/03 07:57:58;;;;;;;39.70;26.33;;;1.60;70.30;;;;;;4983571;28;20222;-82
2022/03/03 08:00:29;;;;;;;35.03;23.23;;;1.70;70.30;;;;;;4997547;28;20325;-81
2022/03/03 08:03:00;;;;;;;41.10;24.00;;;1.70;70.40;;;;;;4982404;28;20222;-82
2022/03/03 08:05:30;;;;;;;35.25;23.00;;;1.80;70.40;;;;;;4988694;28;20210;-80
2022/03/03 08:08:03;;;;;;;33.38;21.50;;;1.80;70.40;;;;;;4990603;28;20226;-82
2022/03/03 08:10:34;;;;;;;33.97;21.15;;;1.90;70.40;;;;;;4992452;28;20219;-81
2022/03/03 08:13:02;;;;;;;33.65;21.60;;;1.90;70.40;;;;;;4984145;28;20739;-82
2022/03/03 08:15:31;;;;;;;34.03;20.08;;;1.90;70.40;;;;;;4991455;28;21004;-81
2022/03/03 08:17:59;;;;;;;35.90;23.40;;;2.00;70.40;;;;;;5006092;28;20234;-82
2022/03/03 08:20:27;;;;;;;73.75;36.25;;;2.00;70.40;;;;;;5000902;28;20194;-80
2022/03/03 08:22:55;;;;;;;68.20;37.60;;;2.00;70.20;;;;;;4988344;28;20214;-83
2022/03/03 08:25:23;;;;;;;45.55;27.88;;;2.00;70.20;;;;;;4989830;28;20210;-82
2022/03/03 08:27:54;;;;;;;40.00;25.40;;;2.00;70.30;;;;;;4983025;28;20226;-82
2022/03/03 08:30:23;;;;;;;57.05;31.60;;;2.00;70.40;;;;;;4984774;28;20203;-84
2022/03/03 08:33:00;;;;;;;63.38;33.80;;;2.00;70.50;;;;;;4981339;28;20211;-84
2022/03/03 08:35:34;;;;;;;45.13;24.00;;;2.10;70.60;;;;;;4984470;28;20194;-83
2022/03/03 08:38:04;;;;;;;42.83;27.20;;;2.20;70.60;;;;;;4998468;28;20226;-83
2022/03/03 08:40:33;;;;;;;41.75;26.00;;;2.20;70.50;;;;;;4995732;28;20743;-83
2022/03/03 08:43:06;;;;;;;34.92;21.55;;;2.30;70.50;;;;;;4996301;28;20211;-83
2022/03/03 08:45:35;;;;;;;33.17;21.90;;;2.40;70.60;;;;;;4981662;28;20771;-83
2022/03/03 08:48:07;;;;;;;30.50;19.75;;;2.40;70.60;;;;;;4975816;28;20226;-83
2022/03/03 08:50:38;;;;;;;32.97;19.45;;;2.40;70.40;;;;;;4986053;28;20195;-82
2022/03/03 08:53:10;;;;;;;26.25;15.80;;;2.50;70.40;;;;;;4986801;28;20210;-84
2022/03/03 08:55:39;;;;;;;29.85;18.92;;;2.50;70.40;;;;;;4983688;28;20203;-81
2022/03/03 08:58:10;;;;;;;33.80;20.02;;;2.60;70.50;;;;;;4984031;28;20241;-84
2022/03/03 09:00:38;;;;;;;31.25;20.85;;;2.70;70.50;;;;;;4983057;28;20238;-83
2022/03/03 09:03:07;;;;;;;34.50;21.85;;;2.70;70.50;;;;;;4996948;28;20306;-82
2022/03/03 09:05:35;;;;;;;34.25;19.67;;;2.80;70.50;;;;;;4983650;28;20715;-82
2022/03/03 09:08:03;;;;;;;34.40;20.42;;;2.90;70.40;;;;;;4983302;28;20730;-82
2022/03/03 09:10:31;;;;;;;34.78;20.20;;;2.90;70.30;;;;;;4983957;28;20190;-83
2022/03/03 09:13:00;;;;;;;30.95;18.67;;;3.00;70.30;;;;;;4984420;28;20220;-81
2022/03/03 09:15:30;;;;;;;32.03;19.70;;;3.00;70.10;;;;;;4999217;28;20249;-81
2022/03/03 09:17:58;;;;;;;33.38;19.83;;;3.10;70.10;;;;;;5004858;28;20233;-85
2022/03/03 09:20:26;;;;;;;27.48;18.58;;;3.10;70.10;;;;;;4987084;28;20210;-84
2022/03/03 09:22:55;;;;;;;29.85;18.95;;;3.20;69.80;;;;;;4981695;28;20544;-84
2022/03/03 09:25:24;;;;;;;26.77;17.25;;;3.20;69.80;;;;;;4982288;28;20241;-84
2022/03/03 09:27:52;;;;;;;33.28;20.77;;;3.30;69.40;;;;;;4979396;28;20285;-84
2022/03/03 09:30:21;;;;;;;28.10;18.25;;;3.30;69.60;;;;;;4981802;28;20210;-83
2022/03/03 09:32:51;;;;;;;32.03;20.25;;;3.40;69.40;;;;;;4985126;28;20209;-83
2022/03/03 09:35:19;;;;;;;27.63;17.45;;;3.40;69.50;;;;;;5000447;28;20723;-83
2022/03/03 09:37:47;;;;;;;30.83;19.67;;;3.50;69.60;;;;;;5002116;28;20307;-83
2022/03/03 09:40:16;;;;;;;30.98;19.38;;;3.50;69.40;;;;;;4985381;28;20206;-82
2022/03/03 09:42:56;;;;;;;32.53;17.02;;;3.60;69.30;;;;;;4981320;28;20745;-83
2022/03/03 09:45:25;;;;;;;36.42;18.65;;;3.70;69.20;;;;;;4984375;28;20914;-83
2022/03/03 09:47:55;;;;;;;27.50;18.70;;;3.70;69.20;;;;;;4999739;28;20237;-83
2022/03/03 09:50:24;;;;;;;31.50;17.77;;;3.80;68.80;;;;;;4982227;28;20935;-83
2022/03/03 09:52:53;;;;;;;27.63;17.50;;;3.80;68.90;;;;;;4996645;28;20218;-83
2022/03/03 09:55:21;;;;;;;25.17;17.50;;;3.90;68.80;;;;;;4983147;28;20919;-83
2022/03/03 09:57:50;;;;;;;28.85;17.38;;;3.90;68.60;;;;;;4982980;28;20222;-82
2022/03/03 10:00:19;;;;;;;27.13;17.02;;;4.00;68.50;;;;;;4982610;28;20207;-84
2022/03/03 10:03:00;;;;;;;32.42;19.08;;;4.00;68.40;;;;;;4978531;28;20268;-83
2022/03/03 10:05:34;;;;;;;31.67;18.05;;;4.00;68.10;;;;;;4996340;28;20425;-83
2022/03/03 10:08:04;;;;;;;34.40;20.80;;;4.10;68.10;;;;;;4975650;28;20791;-83
2022/03/03 10:10:33;;;;;;;30.35;19.95;;;4.10;68.00;;;;;;4980556;28;20213;-83
2022/03/03 10:13:01;;;;;;;29.48;18.58;;;4.20;68.00;;;;;;4978718;28;20202;-83
2022/03/03 10:15:30;;;;;;;25.60;17.70;;;4.20;68.00;;;;;;4981132;28;20336;-83
2022/03/03 10:18:03;;;;;;;31.85;18.95;;;4.30;67.90;;;;;;4982046;28;20236;-83
2022/03/03 10:20:37;;;;;;;29.10;19.08;;;4.40;67.90;;;;;;4981657;28;20218;-82
2022/03/03 10:23:09;;;;;;;27.85;16.60;;;4.40;67.80;;;;;;4981799;28;20207;-82
2022/03/03 10:25:39;;;;;;;34.55;19.83;;;4.50;67.70;;;;;;5001448;28;20234;-83
2022/03/03 10:28:12;;;;;;;29.33;17.60;;;4.50;67.60;;;;;;4979451;28;20246;-82
2022/03/03 10:30:59;;;;;;;25.50;18.02;;;4.60;67.40;;;;;;4980755;28;20801;-83
2022/03/03 10:33:30;;;;;;;29.63;18.35;;;4.60;67.50;;;;;;4995469;28;20305;-83
2022/03/03 10:36:12;;;;;;;27.88;17.30;;;4.70;67.50;;;;;;4983779;28;20919;-83
2022/03/03 10:38:54;;;;;;;33.28;18.52;;;4.70;67.50;;;;;;4982681;28;20226;-83
2022/03/03 10:41:38;;;;;;;31.10;18.20;;;4.80;67.50;;;;;;4982315;28;20199;-83
2022/03/03 10:44:08;;;;;;;57.85;17.05;;;4.80;67.30;;;;;;4980369;28;20868;-83
2022/03/03 10:46:38;;;;;;;41.13;22.48;;;4.90;67.60;;;;;;4982321;28;20237;-83
2022/03/03 10:49:22;;;;;;;38.15;20.25;;;5.00;67.40;;;;;;4983842;28;20214;-83
2022/03/03 10:51:50;;;;;;;27.17;17.00;;;5.00;67.30;;;;;;4984498;28;20270;-83
2022/03/03 10:54:18;;;;;;;25.90;15.32;;;5.10;67.00;;;;;;4984313;28;20215;-82
2022/03/03 10:57:05;;;;;;;34.67;17.92;;;5.10;67.00;;;;;;4983736;28;20226;-82
2022/03/03 10:59:35;;;;;;;25.65;15.73;;;5.20;66.80;;;;;;4998848;28;20257;-83
2022/03/03 11:02:03;;;;;;;27.20;15.57;;;5.20;66.50;;;;;;4998219;28;20245;-83
2022/03/03 11:04:33;;;;;;;25.70;16.02;;;5.20;66.30;;;;;;4998419;28;20746;-83
2022/03/03 11:07:02;;;;;;;25.33;15.82;;;5.30;66.30;;;;;;4983194;28;20285;-83
2022/03/03 11:09:32;;;;;;;23.90;15.88;;;5.30;66.30;;;;;;4983450;28;20195;-82
2022/03/03 11:12:02;;;;;;;32.60;16.73;;;5.40;66.30;;;;;;4980968;28;21021;-82
2022/03/03 11:14:31;;;;;;;27.73;15.93;;;5.40;66.00;;;;;;4982660;28;20207;-82
2022/03/03 11:17:19;;;;;;;40.10;21.00;;;5.40;65.90;;;;;;4983828;28;20310;-82
2022/03/03 11:19:50;;;;;;;35.78;17.52;;;5.50;65.60;;;;;;4986140;28;20206;-83
2022/03/03 11:22:19;;;;;;;24.35;16.52;;;5.50;65.50;;;;;;4997683;28;21202;-83
2022/03/03 11:24:48;;;;;;;44.13;20.27;;;5.60;65.00;;;;;;4985291;28;20382;-83
2022/03/03 11:27:16;;;;;;;35.38;18.83;;;5.70;64.80;;;;;;4983035;28;20234;-83
2022/03/03 11:30:12;;;;;;;35.28;19.45;;;5.80;65.20;;;;;;4988570;28;20198;-83
2022/03/03 11:32:40;;;;;;;32.95;17.88;;;5.90;65.10;;;;;;4984707;28;20231;-82
2022/03/03 11:35:12;;;;;;;35.72;17.27;;;6.00;64.40;;;;;;4985058;28;21709;-83
2022/03/03 11:37:40;;;;;;;26.13;15.30;;;6.10;62.70;;;;;;4984504;28;20234;-83
2022/03/03 11:40:12;;;;;;;30.33;17.75;;;6.20;64.10;;;;;;5000297;28;20584;-83
2022/03/03 11:42:47;;;;;;;24.65;15.80;;;6.20;62.70;;;;;;4983052;28;20199;-84
2022/03/03 11:45:36;;;;;;;32.22;16.80;;;6.30;62.00;;;;;;4999190;28;20902;-83
2022/03/03 11:48:11;;;;;;;22.08;14.23;;;6.40;62.30;;;;;;4998736;28;20281;-81
2022/03/03 11:50:41;;;;;;;24.27;15.32;;;6.50;62.00;;;;;;4983722;28;20207;-82
2022/03/03 11:53:18;;;;;;;25.48;15.93;;;6.60;61.40;;;;;;4981646;28;20215;-83
2022/03/03 11:56:00;;;;;;;22.33;14.60;;;6.60;59.90;;;;;;4990507;28;20197;-83
2022/03/03 11:58:31;;;;;;;26.52;16.30;;;6.70;61.20;;;;;;4984200;28;20222;-83
2022/03/03 12:01:11;;;;;;;25.90;15.23;;;6.80;61.60;;;;;;4981195;28;20289;-84
2022/03/03 12:04:04;;;;;;;38.63;19.70;;;6.80;61.20;;;;;;4988129;28;20210;-83
2022/03/03 12:06:39;;;;;;;28.52;15.98;;;6.90;60.80;;;;;;4984608;28;20422;-82
2022/03/03 12:09:21;;;;;;;25.20;15.68;;;6.90;61.00;;;;;;4974423;28;20958;-83
2022/03/03 12:11:50;;;;;;;25.55;15.32;;;6.90;60.40;;;;;;4987087;28;20221;-82
2022/03/03 12:14:33;;;;;;;24.65;16.08;;;7.00;60.50;;;;;;4991175;28;20206;-81
2022/03/03 12:17:35;;;;;;;27.55;16.30;;;7.00;60.40;;;;;;5001121;28;20566;-82
2022/03/03 12:20:35;;;;;;;23.42;15.45;;;7.10;59.80;;;;;;4985123;28;20271;-81
2022/03/03 12:23:30;;;;;;;23.92;14.55;;;7.10;60.20;;;;;;4985254;28;20210;-83
2022/03/03 12:26:02;;;;;;;24.80;15.25;;;7.10;59.50;;;;;;4983247;28;20754;-82
2022/03/03 12:28:39;;;;;;;31.02;17.30;;;7.10;59.80;;;;;;4986441;28;20225;-82
2022/03/03 12:31:25;;;;;;;26.55;16.80;;;7.10;59.30;;;;;;5001516;28;20235;-82
2022/03/03 12:33:59;;;;;;;29.52;16.25;;;7.20;59.60;;;;;;5003355;28;20205;-82
2022/03/03 12:36:27;;;;;;;26.40;14.95;;;7.20;59.60;;;;;;4985537;28;20531;-82
2022/03/03 12:38:57;;;;;;;24.23;14.95;;;7.30;59.50;;;;;;4985017;28;20233;-81
2022/03/03 12:41:26;;;;;;;23.77;13.88;;;7.30;59.20;;;;;;4985667;28;20252;-82
2022/03/03 12:44:02;;;;;;;23.65;13.95;;;7.40;59.00;;;;;;4984147;28;20265;-82
2022/03/03 12:46:33;;;;;;;22.10;14.90;;;7.40;59.00;;;;;;4986247;28;20297;-83
2022/03/03 12:49:04;;;;;;;18.33;13.13;;;7.40;58.80;;;;;;4981381;28;20239;-83
2022/03/03 12:51:32;;;;;;;22.65;14.05;;;7.40;58.70;;;;;;4981603;28;20778;-83